Time;durP1;ratioP1;P1;durP2;ratioP2;P2;SDS_P1;SDS_P2;PMS_P1;PMS_P2;Temp;Humidity;BMP_temperature;BMP_pressure;BME280_temperature;BME280_humidity;BME280_pressure;Samples;Min_cycle;Max_cycle;Signal;HPM_P1;HPM_P2
2021/06/25 00:00:09;;;;;;;14.07;8.43;;;;;;;20.40;74.88;96560.47;5095154;28;20153;-59
2021/06/25 00:02:35;;;;;;;18.15;10.02;;;;;;;20.41;74.96;96567.50;5094559;28;20016;-59
2021/06/25 00:05:01;;;;;;;18.92;9.00;;;;;;;20.41;75.24;96567.50;5094958;28;20095;-59
2021/06/25 00:07:26;;;;;;;25.67;10.73;;;;;;;20.48;74.88;96565.22;5094910;28;20120;-59
2021/06/25 00:09:52;;;;;;;15.80;8.48;;;;;;;20.48;74.07;96557.22;5094575;28;20024;-59
2021/06/25 00:12:17;;;;;;;24.75;8.40;;;;;;;20.36;75.03;96561.69;5094939;28;20016;-59
2021/06/25 00:14:43;;;;;;;18.60;8.77;;;;;;;20.32;74.88;96559.28;5094891;28;20469;-60
2021/06/25 00:17:09;;;;;;;31.70;10.63;;;;;;;20.35;76.09;96565.31;5094920;28;20024;-59
2021/06/25 00:19:34;;;;;;;18.23;8.45;;;;;;;20.37;75.68;96561.56;5094669;28;20115;-59
2021/06/25 00:22:00;;;;;;;20.63;9.20;;;;;;;20.40;74.79;96564.00;5094155;28;20682;-60
2021/06/25 00:24:26;;;;;;;17.48;7.28;;;;;;;20.41;74.21;96555.06;5094699;28;20107;-60
2021/06/25 00:26:52;;;;;;;20.90;9.27;;;;;;;20.40;74.52;96556.03;5094592;28;20190;-60
2021/06/25 00:29:19;;;;;;;13.18;8.18;;;;;;;20.45;74.76;96560.97;5094654;28;20055;-59
2021/06/25 00:31:44;;;;;;;14.77;8.13;;;;;;;20.47;74.43;96563.53;5094093;28;20035;-59
2021/06/25 00:34:10;;;;;;;16.35;10.68;;;;;;;20.43;75.32;96565.56;5094555;28;20020;-60
2021/06/25 00:36:35;;;;;;;17.27;8.45;;;;;;;20.40;74.94;96555.16;5094406;28;20032;-59
2021/06/25 00:39:01;;;;;;;17.30;9.07;;;;;;;20.44;74.74;96565.44;5093951;28;20032;-60
2021/06/25 00:41:27;;;;;;;16.30;8.73;;;;;;;20.43;74.79;96565.56;5093792;28;20031;-60
2021/06/25 00:43:52;;;;;;;15.80;9.43;;;;;;;20.41;74.80;96557.72;5094271;28;20031;-59
2021/06/25 00:46:19;;;;;;;16.35;8.23;;;;;;;20.39;74.63;96558.81;5094138;28;20017;-60
2021/06/25 00:48:44;;;;;;;19.40;9.52;;;;;;;20.39;74.47;96558.81;5094281;28;20485;-59
2021/06/25 00:51:10;;;;;;;15.98;8.05;;;;;;;20.42;74.38;96550.59;5093515;28;20032;-59
2021/06/25 00:53:36;;;;;;;25.92;10.60;;;;;;;20.43;74.36;96547.81;5094035;28;20020;-59
2021/06/25 00:56:01;;;;;;;18.40;9.40;;;;;;;20.43;74.77;96550.47;5093827;28;20036;-59
2021/06/25 00:58:27;;;;;;;15.50;9.60;;;;;;;20.41;75.65;96547.09;5093871;28;20028;-60
2021/06/25 01:00:52;;;;;;;19.13;11.10;;;;;;;20.44;75.55;96546.03;5093579;28;20036;-59
2021/06/25 01:03:18;;;;;;;16.50;9.13;;;;;;;20.46;75.29;96533.44;5093949;28;20020;-59
2021/06/25 01:05:44;;;;;;;14.30;7.88;;;;;;;20.48;75.15;96542.16;5093959;28;20024;-59
2021/06/25 01:08:11;;;;;;;12.82;8.90;;;;;;;20.46;74.73;96538.75;5093997;28;20023;-59
2021/06/25 01:10:38;;;;;;;16.35;10.48;;;;;;;20.46;74.50;96538.75;5093483;28;20024;-59
2021/06/25 01:13:08;;;;;;;20.30;8.65;;;;;;;20.48;74.29;96541.31;5093132;28;20020;-59
2021/06/25 01:15:34;;;;;;;14.10;8.98;;;;;;;20.48;75.31;96546.63;5092539;28;20058;-59
2021/06/25 01:18:00;;;;;;;19.00;8.02;;;;;;;20.45;74.60;96545.03;5093618;28;20032;-59
2021/06/25 01:20:31;;;;;;;16.15;8.32;;;;;;;20.41;74.72;96548.91;5093017;28;20032;-59
2021/06/25 01:22:56;;;;;;;;;;;;;;;20.38;75.32;96538.53;5094390;28;20028;-59
2021/06/25 01:25:27;;;;;;;13.70;9.73;;;;;;;20.39;75.86;96541.06;5093473;28;20365;-59
2021/06/25 01:27:54;;;;;;;;;;;;;;;20.38;75.54;96538.53;5094146;28;20081;-59
2021/06/25 01:30:23;;;;;;;16.55;11.18;;;;;;;20.33;75.85;96533.56;5093050;28;19916;-60
2021/06/25 01:32:49;;;;;;;18.25;9.27;;;;;;;20.31;75.80;96539.00;5093424;28;20016;-59
2021/06/25 01:35:15;;;;;;;15.45;9.07;;;;;;;20.32;75.44;96545.16;5093425;28;20530;-59
2021/06/25 01:37:42;;;;;;;21.17;9.35;;;;;;;20.32;74.97;96540.69;5092981;28;20504;-59
2021/06/25 01:40:10;;;;;;;12.18;8.15;;;;;;;20.32;75.32;96547.81;5093540;28;20733;-59
2021/06/25 01:42:39;;;;;;;18.00;9.93;;;;;;;20.32;74.63;96548.66;5093368;28;20055;-59
2021/06/25 01:45:16;;;;;;;20.50;8.73;;;;;;;20.29;74.37;96545.41;5093311;28;20472;-59
2021/06/25 01:47:43;;;;;;;22.40;9.90;;;;;;;20.28;74.77;96557.81;5092946;28;20421;-59
2021/06/25 01:50:21;;;;;;;24.10;9.27;;;;;;;20.28;74.65;96549.88;5093160;28;20035;-59
2021/06/25 01:52:52;;;;;;;22.90;12.05;;;;;;;20.27;74.80;96556.16;5093391;28;20094;-59
2021/06/25 01:55:18;;;;;;;17.90;8.75;;;;;;;20.23;75.48;96559.16;5093252;28;20055;-60
2021/06/25 01:57:44;;;;;;;17.85;10.57;;;;;;;20.18;75.65;96555.06;5092619;28;20189;-59
2021/06/25 02:00:11;;;;;;;17.80;8.57;;;;;;;20.13;75.90;96543.91;5092970;28;20110;-60
2021/06/25 02:02:37;;;;;;;20.30;11.02;;;;;;;20.06;75.79;96542.72;5093115;28;20116;-60
2021/06/25 02:05:04;;;;;;;14.20;8.60;;;;;;;19.99;75.67;96544.97;5093117;28;20035;-60
2021/06/25 02:07:30;;;;;;;17.63;10.13;;;;;;;19.98;76.47;96545.91;5093143;28;20028;-59
2021/06/25 02:09:56;;;;;;;13.73;10.88;;;;;;;19.99;76.44;96536.16;5092310;28;20024;-60
2021/06/25 02:12:22;;;;;;;20.73;8.73;;;;;;;20.02;75.80;96536.78;5093085;28;20036;-59
2021/06/25 02:14:48;;;;;;;27.92;8.82;;;;;;;20.06;75.69;96534.75;5093229;28;20477;-60
2021/06/25 02:17:16;;;;;;;14.75;8.45;;;;;;;20.07;75.04;96533.78;5092986;28;20035;-60
2021/06/25 02:19:42;;;;;;;21.45;10.10;;;;;;;20.06;76.20;96527.63;5092596;28;20461;-60
2021/06/25 02:22:07;;;;;;;25.00;12.20;;;;;;;20.06;76.10;96524.97;5092970;28;20126;-59
2021/06/25 02:24:33;;;;;;;9.73;8.60;;;;;;;20.06;75.97;96529.44;5095210;28;20466;-60
2021/06/25 02:26:58;;;;;;;29.70;10.27;;;;;;;20.07;76.06;96531.97;5096987;28;20024;-60
2021/06/25 02:29:25;;;;;;;28.08;10.30;;;;;;;20.13;75.81;96530.66;5096687;28;20503;-60
2021/06/25 02:31:51;;;;;;;15.43;8.82;;;;;;;20.11;75.09;96542.34;5096887;28;20027;-60
2021/06/25 02:34:16;;;;;;;16.25;8.88;;;;;;;20.08;74.58;96538.97;5096897;28;20024;-60
2021/06/25 02:36:42;;;;;;;14.77;9.15;;;;;;;20.10;76.42;96541.50;5096612;28;20027;-60
2021/06/25 02:39:07;;;;;;;12.98;8.82;;;;;;;20.08;75.14;96544.28;5096564;28;20020;-60
2021/06/25 02:41:33;;;;;;;15.73;8.98;;;;;;;20.06;75.64;96535.59;5096658;28;20078;-60
2021/06/25 02:43:59;;;;;;;15.48;9.00;;;;;;;20.05;75.17;96535.72;5096554;28;20093;-60
2021/06/25 02:46:24;;;;;;;16.85;8.80;;;;;;;20.07;75.45;96537.28;5096661;28;20024;-60
2021/06/25 02:48:50;;;;;;;14.32;7.60;;;;;;;20.11;75.17;96524.63;5096277;28;20020;-60
2021/06/25 02:51:15;;;;;;;13.10;8.07;;;;;;;20.06;75.15;96518.81;5096548;28;20484;-60
2021/06/25 02:53:41;;;;;;;26.73;9.38;;;;;;;20.02;75.63;96512.88;5096514;28;20146;-60
2021/06/25 02:56:06;;;;;;;18.38;8.18;;;;;;;19.98;75.68;96513.22;5095822;28;20016;-60
2021/06/25 02:58:32;;;;;;;15.80;9.50;;;;;;;19.98;75.67;96503.44;5096273;28;20064;-60
2021/06/25 03:00:58;;;;;;;16.35;9.60;;;;;;;20.01;75.63;96505.03;5096299;28;20035;-60
2021/06/25 03:03:23;;;;;;;17.55;8.10;;;;;;;20.01;75.58;96499.72;5096333;28;20373;-60
2021/06/25 03:05:50;;;;;;;20.05;8.68;;;;;;;20.05;75.73;96507.34;5095913;28;20028;-60
2021/06/25 03:08:17;;;;;;;17.55;8.77;;;;;;;20.08;75.78;96509.75;5095587;28;20024;-60
2021/06/25 03:10:46;;;;;;;12.65;8.07;;;;;;;20.17;75.99;96515.34;5096112;28;20032;-60
2021/06/25 03:13:11;;;;;;;15.88;8.30;;;;;;;20.26;75.14;96511.13;5096114;28;20516;-59
2021/06/25 03:15:37;;;;;;;18.65;9.77;;;;;;;20.30;75.24;96509.91;5095488;28;20119;-60
2021/06/25 03:18:02;;;;;;;18.05;8.68;;;;;;;20.36;75.20;96511.22;5096086;28;20024;-60
2021/06/25 03:20:28;;;;;;;14.48;8.20;;;;;;;20.43;74.86;96507.97;5096040;28;20024;-60
2021/06/25 03:22:53;;;;;;;16.88;7.53;;;;;;;20.47;75.07;96502.44;5095999;28;20032;-60
2021/06/25 03:25:19;;;;;;;18.75;7.68;;;;;;;20.52;74.06;96503.75;5095377;28;20103;-60
2021/06/25 03:27:45;;;;;;;14.70;8.07;;;;;;;20.60;73.99;96507.59;5095198;28;20024;-59
2021/06/25 03:30:13;;;;;;;16.98;8.05;;;;;;;20.73;74.49;96502.16;5095525;28;20032;-59
2021/06/25 03:32:38;;;;;;;17.63;8.50;;;;;;;20.87;74.23;96496.59;5094569;28;20024;-59
2021/06/25 03:35:05;;;;;;;15.02;7.68;;;;;;;21.07;73.62;96499.47;5094738;28;20038;-60
2021/06/25 03:37:32;;;;;;;13.93;7.20;;;;;;;21.31;73.29;96487.78;5094725;28;20378;-60
2021/06/25 03:39:57;;;;;;;14.43;7.65;;;;;;;21.51;72.59;96479.94;5094946;28;20028;-60
2021/06/25 03:42:23;;;;;;;13.38;6.85;;;;;;;21.71;71.30;96486.25;5095069;28;20027;-60
2021/06/25 03:44:49;;;;;;;13.00;6.53;;;;;;;21.88;71.23;96476.03;5094231;28;20070;-59
2021/06/25 03:47:14;;;;;;;13.10;6.47;;;;;;;22.08;71.13;96487.63;5094594;28;20461;-60
2021/06/25 03:49:40;;;;;;;14.73;6.90;;;;;;;22.27;70.57;96486.06;5094542;28;20024;-59
2021/06/25 03:52:06;;;;;;;10.20;5.35;;;;;;;22.52;69.76;96489.22;5094606;28;20069;-59
2021/06/25 03:54:32;;;;;;;9.32;5.55;;;;;;;22.69;68.50;96477.09;5094560;28;20057;-60
2021/06/25 03:56:58;;;;;;;18.73;5.35;;;;;;;22.96;68.28;96495.13;5094152;28;20519;-60
2021/06/25 03:59:23;;;;;;;12.95;5.72;;;;;;;23.16;67.71;96492.50;5095180;28;20103;-60
2021/06/25 04:01:49;;;;;;;13.40;5.80;;;;;;;23.42;67.83;96486.63;5095293;28;20051;-59
2021/06/25 04:04:15;;;;;;;12.77;5.45;;;;;;;23.67;66.80;96486.19;5095106;28;20020;-60
2021/06/25 04:06:40;;;;;;;13.27;4.82;;;;;;;23.89;66.13;96485.03;5095049;28;20044;-59
2021/06/25 04:09:06;;;;;;;14.48;6.53;;;;;;;24.01;67.16;96490.19;5094906;28;20026;-60
2021/06/25 04:11:33;;;;;;;12.68;5.28;;;;;;;24.17;67.17;96482.44;5095022;28;20020;-60
2021/06/25 04:13:58;;;;;;;15.07;6.32;;;;;;;24.45;66.98;96501.22;5095021;28;20436;-60
2021/06/25 04:16:24;;;;;;;8.63;4.72;;;;;;;24.77;65.53;96495.59;5094937;28;20081;-60
2021/06/25 04:18:49;;;;;;;25.40;7.15;;;;;;;24.99;64.93;96500.53;5094732;28;20028;-60
2021/06/25 04:21:15;;;;;;;12.05;5.93;;;;;;;25.32;63.94;96497.38;5094907;28;20028;-60
2021/06/25 04:23:41;;;;;;;10.60;5.90;;;;;;;25.63;63.59;96496.16;5094700;28;20114;-60
2021/06/25 04:26:07;;;;;;;10.40;5.50;;;;;;;25.90;62.80;96499.72;5094696;28;20473;-60
2021/06/25 04:28:32;;;;;;;10.00;5.30;;;;;;;26.20;62.44;96492.22;5094613;28;20026;-60
2021/06/25 04:30:58;;;;;;;13.32;5.70;;;;;;;26.48;62.31;96494.72;5094608;28;20020;-60
2021/06/25 04:33:24;;;;;;;6.32;4.85;;;;;;;26.79;61.66;96487.97;5094457;28;20016;-60
2021/06/25 04:35:53;;;;;;;8.93;5.13;;;;;;;27.11;61.01;96504.34;5093244;28;20032;-60
2021/06/25 04:38:19;;;;;;;10.93;5.38;;;;;;;27.41;59.92;96502.06;5094326;28;20028;-60
2021/06/25 04:40:45;;;;;;;10.63;4.93;;;;;;;27.59;59.00;96493.88;5094374;28;20016;-60
2021/06/25 04:43:13;;;;;;;13.38;5.13;;;;;;;27.82;58.63;96489.69;5094486;28;20497;-60
2021/06/25 04:45:40;;;;;;;14.52;5.95;;;;;;;28.03;58.31;96497.22;5094217;28;20035;-60
2021/06/25 04:48:07;;;;;;;11.15;5.25;;;;;;;28.29;57.14;96492.66;5093336;28;20377;-60
2021/06/25 04:50:33;;;;;;;14.27;5.32;;;;;;;28.45;56.75;96489.94;5094288;28;20025;-60
2021/06/25 04:52:59;;;;;;;13.23;5.90;;;;;;;28.61;56.78;96488.19;5094169;28;20150;-60
2021/06/25 04:55:25;;;;;;;11.15;5.50;;;;;;;28.86;56.04;96490.75;5094169;28;20142;-60
2021/06/25 04:57:53;;;;;;;12.43;5.05;;;;;;;29.11;56.23;96490.69;5093875;28;20052;-60
2021/06/25 05:00:21;;;;;;;13.00;5.60;;;;;;;29.36;55.81;96495.91;5093929;28;20028;-60
2021/06/25 05:02:46;;;;;;;11.20;5.20;;;;;;;29.57;54.44;96489.03;5093943;28;20427;-60
2021/06/25 05:05:13;;;;;;;13.35;5.55;;;;;;;29.72;54.21;96491.78;5094015;28;20028;-60
2021/06/25 05:07:39;;;;;;;17.67;6.05;;;;;;;29.92;53.72;96484.06;5093900;28;20019;-60
2021/06/25 05:10:05;;;;;;;14.23;5.70;;;;;;;30.07;53.78;96486.75;5093932;28;20032;-60
2021/06/25 05:12:31;;;;;;;19.85;5.05;;;;;;;30.31;51.46;96489.41;5092538;28;20559;-60
2021/06/25 05:14:56;;;;;;;10.60;5.07;;;;;;;30.39;51.12;96482.06;5093716;28;20028;-60
2021/06/25 05:17:25;;;;;;;14.07;4.88;;;;;;;30.59;51.34;96484.22;5093628;28;20020;-60
2021/06/25 05:19:50;;;;;;;10.80;4.95;;;;;;;30.89;52.32;96486.06;5093654;28;20416;-60
2021/06/25 05:22:16;;;;;;;11.38;5.97;;;;;;;31.17;52.17;96481.78;5093610;28;20077;-60
2021/06/25 05:24:41;;;;;;;18.58;5.68;;;;;;;31.34;49.76;96475.13;5093587;28;20067;-59
2021/06/25 05:27:08;;;;;;;12.85;5.32;;;;;;;31.46;49.79;96478.19;5093591;28;20024;-60
2021/06/25 05:29:33;;;;;;;16.42;4.63;;;;;;;31.65;49.65;96482.09;5093634;28;20541;-60
2021/06/25 05:31:59;;;;;;;12.63;4.28;;;;;;;31.78;48.84;96465.16;5093625;28;20052;-60
2021/06/25 05:34:24;;;;;;;9.82;5.32;;;;;;;31.90;46.64;96470.00;5093713;28;20473;-60
2021/06/25 05:36:50;;;;;;;16.20;5.60;;;;;;;31.99;46.18;96466.16;5093534;28;20023;-60
2021/06/25 05:39:16;;;;;;;19.30;5.47;;;;;;;32.20;47.12;96467.13;5093409;28;20081;-60
2021/06/25 05:41:41;;;;;;;11.57;4.88;;;;;;;32.37;47.24;96459.53;5093368;28;20027;-60
2021/06/25 05:44:07;;;;;;;13.57;4.78;;;;;;;32.49;46.80;96462.56;5093373;28;20032;-60
2021/06/25 05:46:33;;;;;;;13.48;4.57;;;;;;;32.66;45.99;96467.63;5093312;28;20024;-60
2021/06/25 05:48:58;;;;;;;11.68;5.47;;;;;;;32.77;44.84;96463.50;5093230;28;20052;-60
2021/06/25 05:51:25;;;;;;;12.15;5.32;;;;;;;32.89;44.72;96463.75;5093203;28;20027;-60
2021/06/25 05:53:51;;;;;;;15.85;4.72;;;;;;;32.94;44.92;96455.88;5093280;28;20075;-60
2021/06/25 05:56:17;;;;;;;15.82;4.85;;;;;;;32.99;45.75;96460.66;5093087;28;20493;-60
2021/06/25 05:58:42;;;;;;;10.63;5.03;;;;;;;33.15;44.97;96457.63;5092982;28;20481;-60
2021/06/25 06:01:08;;;;;;;22.88;5.63;;;;;;;33.28;44.24;96458.69;5093140;28;20059;-60
2021/06/25 06:03:34;;;;;;;16.40;5.20;;;;;;;33.28;44.16;96459.53;5093099;28;20377;-60
2021/06/25 06:06:02;;;;;;;18.60;5.57;;;;;;;33.40;44.59;96458.91;5093231;28;20367;-60
2021/06/25 06:08:28;;;;;;;15.18;5.13;;;;;;;33.56;44.51;96457.69;5093144;28;20024;-60
2021/06/25 06:10:54;;;;;;;11.52;5.05;;;;;;;33.68;45.45;96455.22;5093103;28;20059;-60
2021/06/25 06:13:20;;;;;;;10.80;4.97;;;;;;;33.84;45.84;96456.69;5093056;28;20103;-60
2021/06/25 06:15:45;;;;;;;8.70;4.35;;;;;;;34.09;45.80;96452.47;5092914;28;20060;-60
2021/06/25 06:18:18;;;;;;;10.30;4.57;;;;;;;34.28;45.64;96448.09;5092957;28;20028;-60
2021/06/25 06:20:44;;;;;;;11.23;4.57;;;;;;;34.44;46.26;96451.38;5093146;28;20100;-60
2021/06/25 06:31:23;;;;;;;12.75;5.38;;;;;;;35.11;41.29;96434.81;5093265;28;20166;-60
2021/06/25 06:33:58;;;;;;;11.23;5.00;;;;;;;35.22;46.07;96427.03;5092829;28;20028;-61
2021/06/25 06:38:52;;;;;;;15.75;5.07;;;;;;;35.70;41.31;96433.00;5092750;28;20030;-60
2021/06/25 06:41:18;;;;;;;14.93;4.85;;;;;;;35.96;44.07;96433.81;5092767;28;20024;-60
2021/06/25 06:43:44;;;;;;;19.05;5.18;;;;;;;36.13;42.83;96432.19;5092732;28;20024;-60
2021/06/25 06:46:11;;;;;;;12.23;4.75;;;;;;;36.30;39.88;96437.06;5092744;28;20020;-60
2021/06/25 06:48:38;;;;;;;21.42;5.55;;;;;;;36.39;39.05;96427.50;5092742;28;20032;-60
2021/06/25 06:51:04;;;;;;;11.73;5.25;;;;;;;36.37;43.21;96424.22;5092668;28;20111;-60
2021/06/25 06:53:31;;;;;;;10.88;4.40;;;;;;;36.47;38.74;96420.94;5092728;28;20075;-60
2021/06/25 06:55:56;;;;;;;16.48;5.80;;;;;;;36.65;41.03;96416.53;5092780;28;20024;-60
2021/06/25 06:58:22;;;;;;;16.92;5.38;;;;;;;36.75;41.53;96419.56;5092351;28;20485;-60
2021/06/25 07:00:47;;;;;;;17.17;5.47;;;;;;;36.84;39.25;96417.34;5092716;28;20020;-60
2021/06/25 07:03:14;;;;;;;14.20;5.15;;;;;;;36.88;37.13;96418.59;5092619;28;20024;-60
2021/06/25 09:25:28;;;;;;;21.83;5.22;;;;;;;36.91;37.27;96420.84;5131602;27;20379;-59
2021/06/25 09:27:56;;;;;;;21.52;5.88;;;;;;;37.03;39.56;96426.34;5131423;27;20027;-59
2021/06/25 09:30:23;;;;;;;17.08;5.22;;;;;;;37.08;39.52;96424.81;5131482;27;20020;-59
2021/06/25 09:32:49;;;;;;;17.52;5.95;;;;;;;37.06;38.19;96425.03;5131258;27;20468;-59
2021/06/25 09:35:23;;;;;;;25.90;6.00;;;;;;;37.05;36.60;96432.38;5131168;27;20041;-60
2021/06/25 09:37:50;;;;;;;13.80;6.18;;;;;;;36.83;39.18;96418.44;5131132;27;20026;-59
2021/06/25 09:40:18;;;;;;;23.40;5.68;;;;;;;37.00;37.98;96432.25;5131077;27;20020;-59
2021/06/25 09:42:45;;;;;;;15.45;5.90;;;;;;;37.12;37.26;96421.41;5131061;27;20023;-59
2021/06/25 09:45:19;;;;;;;20.05;6.28;;;;;;;37.13;39.67;96424.94;5131074;27;20051;-60
2021/06/25 09:47:52;;;;;;;21.08;5.55;;;;;;;37.16;38.37;96424.47;5131010;27;20435;-59
2021/06/25 09:50:19;;;;;;;14.85;6.20;;;;;;;37.10;38.58;96425.38;5130936;27;20027;-59
2021/06/25 09:52:56;;;;;;;22.58;5.75;;;;;;;37.06;34.09;96411.41;5130713;27;20027;-59
2021/06/25 09:55:21;;;;;;;18.02;6.47;;;;;;;36.76;35.90;96414.97;5130846;27;20098;-59
2021/06/25 10:03:46;;;;;;;15.15;5.93;;;;;;;36.35;37.38;96414.63;5131007;28;20474;-59
2021/06/25 10:06:15;;;;;;;21.60;5.63;;;;;;;36.35;34.83;96414.63;5130714;27;20034;-59
2021/06/25 10:08:41;;;;;;;20.02;6.43;;;;;;;36.34;38.30;96410.22;5130696;27;20089;-59
2021/06/25 10:11:08;;;;;;;15.70;5.90;;;;;;;36.38;38.41;96411.41;5130517;27;20515;-59
2021/06/25 10:13:36;;;;;;;13.07;5.60;;;;;;;36.48;39.18;96414.44;5130315;27;20032;-59
2021/06/25 10:16:03;;;;;;;15.38;5.45;;;;;;;36.57;37.38;96408.69;5130443;27;20016;-59
2021/06/25 10:18:30;;;;;;;13.57;5.63;;;;;;;36.67;36.36;96401.66;5130433;27;20464;-59
2021/06/25 10:20:56;;;;;;;24.73;6.57;;;;;;;36.76;36.05;96395.91;5130333;27;20020;-60
2021/06/25 10:23:23;;;;;;;26.48;5.82;;;;;;;36.84;38.67;96392.03;5130028;27;20100;-59
2021/06/25 10:25:50;;;;;;;16.17;5.65;;;;;;;36.88;35.28;96393.22;5119798;27;20483;-59
2021/06/25 10:28:17;;;;;;;20.05;6.75;;;;;;;36.74;39.94;96387.97;5116553;28;20020;-59
2021/06/25 10:30:46;;;;;;;22.05;5.25;;;;;;;36.69;36.72;96386.97;5116398;27;20614;-59
2021/06/25 10:33:12;;;;;;;16.67;5.50;;;;;;;36.52;36.13;96383.00;5116404;28;20019;-59
2021/06/25 10:35:40;;;;;;;22.15;6.22;;;;;;;36.52;37.04;96382.16;5116379;28;20065;-59
2021/06/25 10:38:06;;;;;;;23.25;6.45;;;;;;;36.49;38.53;96379.88;5116287;28;20046;-59
2021/06/25 10:40:31;;;;;;;19.65;6.55;;;;;;;36.57;37.64;96379.59;5116382;28;20520;-59
2021/06/25 10:43:00;;;;;;;18.25;6.00;;;;;;;36.57;37.55;96385.03;5116132;28;20027;-60
2021/06/25 10:45:43;;;;;;;18.52;6.60;;;;;;;36.61;36.46;96386.22;5116124;28;20073;-60
2021/06/25 10:48:09;;;;;;;18.58;5.82;;;;;;;36.71;39.51;96379.44;5116253;28;20034;-60
2021/06/25 10:50:35;;;;;;;21.00;5.90;;;;;;;36.34;40.04;96383.00;5116068;28;20465;-60
2021/06/25 10:53:27;;;;;;;13.40;5.70;;;;;;;35.96;38.30;96385.66;5116035;28;20038;-60
2021/06/25 10:56:03;;;;;;;14.30;5.70;;;;;;;35.65;40.53;96382.81;5113000;28;20046;-60
2021/06/25 10:58:29;;;;;;;18.30;5.35;;;;;;;35.42;37.75;96391.56;5116015;28;20115;-60
2021/06/25 11:01:00;;;;;;;17.27;5.68;;;;;;;35.22;40.56;96381.69;5115780;28;20072;-60
2021/06/25 11:03:36;;;;;;;14.73;5.85;;;;;;;35.19;37.57;96379.41;5115897;28;20364;-60
2021/06/25 11:06:05;;;;;;;11.85;5.35;;;;;;;35.18;36.27;96380.44;5116058;28;20038;-60
2021/06/25 11:08:31;;;;;;;20.10;5.85;;;;;;;35.23;37.31;96377.06;5115809;28;20407;-60
2021/06/25 11:10:58;;;;;;;16.65;5.30;;;;;;;35.31;37.84;96378.69;5115831;28;20019;-60
2021/06/25 11:13:35;;;;;;;20.73;5.43;;;;;;;35.36;38.30;96379.69;5115542;28;20036;-60
2021/06/25 11:16:19;;;;;;;16.55;5.30;;;;;;;35.25;39.04;96380.41;5115600;28;20468;-60
2021/06/25 11:18:45;;;;;;;21.73;5.43;;;;;;;35.24;35.27;96379.56;5115612;28;20032;-60
2021/06/25 11:21:11;;;;;;;18.92;5.10;;;;;;;35.37;37.80;96375.09;5115628;28;20106;-60
2021/06/25 11:23:39;;;;;;;28.45;6.03;;;;;;;35.45;37.43;96374.81;5115292;28;20484;-60
2021/06/25 11:26:14;;;;;;;16.70;5.40;;;;;;;35.35;35.79;96375.31;5115453;28;20469;-60
2021/06/25 11:28:51;;;;;;;24.98;5.78;;;;;;;35.36;38.26;96379.69;5115253;28;20024;-60
2021/06/25 11:31:18;;;;;;;15.07;5.78;;;;;;;35.52;38.14;96375.59;5115325;28;20024;-60
2021/06/25 11:33:47;;;;;;;20.63;5.38;;;;;;;35.69;35.30;96374.25;5115138;28;20031;-60
2021/06/25 11:36:52;;;;;;;16.67;5.40;;;;;;;35.82;37.67;96371.38;5114626;28;20081;-60
2021/06/25 11:39:17;;;;;;;18.40;5.30;;;;;;;35.82;36.87;96368.69;5106022;28;20047;-60
2021/06/25 11:41:59;;;;;;;19.95;5.45;;;;;;;35.95;36.76;96375.00;5115146;28;20362;-60
2021/06/25 11:44:37;;;;;;;16.15;5.40;;;;;;;35.75;36.65;96360.56;5115085;28;20051;-60
2021/06/25 11:47:12;;;;;;;22.77;6.05;;;;;;;35.70;36.85;96368.56;5115051;28;20491;-60
2021/06/25 11:49:42;;;;;;;15.98;5.90;;;;;;;35.65;35.67;96361.06;5115053;28;20031;-60
2021/06/25 11:52:09;;;;;;;;;;;;;;;35.52;36.22;96369.34;5115321;28;20063;-60
2021/06/25 11:54:36;;;;;;;17.92;5.63;;;;;;;35.35;36.96;96361.72;5114749;28;19965;-60
2021/06/25 11:57:03;;;;;;;25.42;6.45;;;;;;;35.19;36.82;96363.13;5114800;28;20031;-60
2021/06/25 11:59:28;;;;;;;14.07;5.00;;;;;;;35.20;36.94;96369.38;5114757;28;20024;-60
2021/06/25 12:02:00;;;;;;;18.05;5.60;;;;;;;35.25;37.67;96358.69;5114579;28;20072;-60
2021/06/25 12:04:35;;;;;;;21.23;6.07;;;;;;;35.27;37.40;96370.97;5114586;28;20049;-61
2021/06/25 12:07:01;;;;;;;19.42;5.82;;;;;;;35.26;36.21;96368.50;5114684;28;20027;-60
2021/06/25 12:09:50;;;;;;;16.55;6.15;;;;;;;35.23;39.57;96348.03;5114544;28;20482;-61
2021/06/25 12:12:21;;;;;;;14.57;5.38;;;;;;;35.18;38.13;96357.91;5114596;28;20032;-61
2021/06/25 12:14:59;;;;;;;18.58;6.75;;;;;;;35.03;37.31;96354.41;5113060;28;20085;-60
2021/06/25 12:17:39;;;;;;;21.83;5.88;;;;;;;35.09;38.50;96347.25;5114489;28;20022;-61
2021/06/25 12:20:08;;;;;;;20.90;5.57;;;;;;;35.14;36.45;96346.59;5114485;28;20081;-61
2021/06/25 12:23:06;;;;;;;21.27;6.35;;;;;;;35.30;37.61;96345.25;5114237;28;20465;-60
2021/06/25 12:25:40;;;;;;;23.00;5.57;;;;;;;35.39;38.38;96341.19;5113797;28;20092;-60
2021/06/25 12:28:12;;;;;;;22.30;5.40;;;;;;;35.35;36.25;96331.00;5114223;28;20078;-61
2021/06/25 12:31:04;;;;;;;17.45;5.80;;;;;;;35.42;35.23;96335.31;5114246;28;20076;-61
2021/06/25 12:33:32;;;;;;;15.32;5.13;;;;;;;35.52;34.98;96336.72;5114122;28;20059;-61
2021/06/25 12:35:59;;;;;;;19.83;6.22;;;;;;;35.42;37.81;96332.59;5114050;28;20050;-60
2021/06/25 12:38:27;;;;;;;16.27;5.38;;;;;;;35.12;36.24;96327.81;5113955;28;20511;-60
2021/06/25 12:40:52;;;;;;;17.13;5.50;;;;;;;35.10;37.54;96334.53;5114023;28;20107;-60
2021/06/25 12:43:31;;;;;;;19.85;5.65;;;;;;;35.24;37.80;96325.22;5113937;28;20444;-60
2021/06/25 12:46:01;;;;;;;10.70;5.27;;;;;;;35.25;38.17;96321.47;5113941;28;20027;-61
2021/06/25 12:48:32;;;;;;;17.50;5.32;;;;;;;35.22;39.99;96331.94;5113554;28;20480;-60
2021/06/25 12:51:02;;;;;;;20.50;6.18;;;;;;;35.12;35.63;96316.13;5113801;28;20028;-60
2021/06/25 12:53:31;;;;;;;19.02;5.05;;;;;;;35.22;35.94;96321.09;5113844;28;20027;-61
2021/06/25 12:56:19;;;;;;;17.15;5.82;;;;;;;35.37;37.56;96321.59;5113837;28;20032;-60
2021/06/25 12:58:48;;;;;;;20.00;5.50;;;;;;;35.36;38.51;96325.34;5113871;28;20536;-60
2021/06/25 13:01:14;;;;;;;21.15;5.20;;;;;;;35.45;39.45;96325.06;5113711;28;20030;-60
2021/06/25 13:03:45;;;;;;;19.17;5.28;;;;;;;35.50;37.06;96325.22;5113650;28;20027;-60
2021/06/25 13:06:25;;;;;;;13.98;5.18;;;;;;;35.62;38.00;96322.59;5113584;28;20534;-61
2021/06/25 13:08:50;;;;;;;19.50;6.03;;;;;;;35.75;37.28;96319.78;5113709;28;20036;-60
2021/06/25 13:11:19;;;;;;;22.42;5.63;;;;;;;35.63;39.36;96325.09;5112366;28;20028;-60
2021/06/25 13:13:45;;;;;;;20.23;5.72;;;;;;;35.56;39.60;96310.75;5113445;28;20038;-61
2021/06/25 13:16:16;;;;;;;12.95;4.90;;;;;;;35.52;39.67;96302.19;5113669;28;20027;-60
2021/06/25 13:18:47;;;;;;;17.23;5.90;;;;;;;35.59;39.75;96304.84;5113558;28;20027;-60
2021/06/25 13:21:22;;;;;;;19.70;5.80;;;;;;;35.77;39.95;96295.91;5112345;28;20027;-60
2021/06/25 13:24:00;;;;;;;16.75;5.97;;;;;;;35.86;39.17;96290.16;5113301;28;20066;-60
2021/06/25 13:26:47;;;;;;;24.90;5.32;;;;;;;35.98;36.41;96293.81;5113392;28;20119;-61
2021/06/25 13:29:13;;;;;;;26.85;6.25;;;;;;;35.97;37.82;96294.88;5113514;28;20038;-60
2021/06/25 13:32:03;;;;;;;19.40;6.00;;;;;;;35.75;38.97;96298.03;5113445;28;20428;-60
2021/06/25 13:34:29;;;;;;;20.92;5.70;;;;;;;35.61;35.65;96301.91;5113287;28;20051;-60
2021/06/25 13:37:00;;;;;;;25.65;5.60;;;;;;;35.66;36.78;96294.75;5113330;28;20055;-60
2021/06/25 13:39:29;;;;;;;15.40;5.95;;;;;;;35.72;38.85;96303.91;5113356;28;20090;-60
2021/06/25 13:41:56;;;;;;;26.40;5.55;;;;;;;35.82;39.55;96305.28;5113331;28;20081;-61
2021/06/25 13:44:25;;;;;;;13.18;5.72;;;;;;;35.84;39.91;96295.84;5113401;28;20020;-61
2021/06/25 13:46:54;;;;;;;21.30;6.05;;;;;;;35.84;41.66;96295.03;5113372;28;20126;-61
2021/06/25 13:49:22;;;;;;;15.32;5.50;;;;;;;35.72;40.51;96290.31;5113244;28;20020;-60
2021/06/25 13:51:48;;;;;;;13.20;5.40;;;;;;;35.51;39.37;96291.53;5113152;28;20099;-60
2021/06/25 13:54:20;;;;;;;29.88;5.82;;;;;;;35.28;39.39;96290.31;5113107;28;20023;-61
2021/06/25 13:56:56;;;;;;;20.85;5.22;;;;;;;35.17;41.44;96294.53;5113277;28;20026;-59
2021/06/25 13:59:22;;;;;;;23.17;5.40;;;;;;;35.18;41.42;96300.84;5113315;28;20412;-60
2021/06/25 14:01:50;;;;;;;17.58;5.65;;;;;;;35.16;37.64;96298.31;5115729;28;20020;-60
2021/06/25 14:04:20;;;;;;;23.88;5.93;;;;;;;34.94;39.81;96301.41;5117177;28;20053;-60
2021/06/25 14:06:50;;;;;;;17.75;5.78;;;;;;;34.74;40.31;96305.09;5116943;28;20350;-60